Time;durP1;ratioP1;P1;durP2;ratioP2;P2;SDS_P1;SDS_P2;PMS_P1;PMS_P2;Temp;Humidity;BMP_temperature;BMP_pressure;BME280_temperature;BME280_humidity;BME280_pressure;Samples;Min_cycle;Max_cycle;Signal;HPM_P1;HPM_P2
2022/01/09 14:13:25;;;;;;;35.42;17.17;;;;;;;-0.80;77.36;98815.25;4496735;31;163581;-75
2022/01/09 14:16:15;;;;;;;31.48;16.48;;;;;;;-0.22;75.09;98816.22;4485914;31;34694;-75
2022/01/09 14:19:05;;;;;;;30.25;16.85;;;;;;;0.76;70.71;98814.72;4475468;32;35609;-75
2022/01/09 14:21:54;;;;;;;32.03;16.58;;;;;;;1.27;68.18;98817.44;4478394;32;34959;-76
2022/01/09 14:25:13;;;;;;;31.55;16.60;;;;;;;1.62;65.87;98816.59;4485217;32;35520;-75
2022/01/09 14:28:04;;;;;;;30.80;14.52;;;;;;;2.03;64.40;98816.53;4479069;32;34190;-75
2022/01/09 14:31:02;;;;;;;29.12;14.70;;;;;;;2.05;63.28;98821.66;4467030;32;34733;-76
2022/01/09 14:33:51;;;;;;;32.13;15.20;;;;;;;2.34;61.73;98819.13;4487147;31;34719;-76
2022/01/09 14:36:37;;;;;;;38.53;16.80;;;;;;;2.33;62.06;98821.00;4485733;32;35052;-76
2022/01/09 14:39:27;;;;;;;31.20;15.43;;;;;;;2.52;61.31;98818.50;4485238;32;34213;-75
2022/01/09 14:42:13;;;;;;;37.95;16.23;;;;;;;2.66;60.50;98822.22;4480009;32;34492;-75
2022/01/09 14:45:00;;;;;;;33.25;15.13;;;;;;;2.71;60.67;98813.28;4477678;32;35997;-75
2022/01/09 14:47:48;;;;;;;30.37;16.48;;;;;;;2.77;60.72;98809.44;4485437;32;35478;-75
2022/01/09 14:50:37;;;;;;;35.00;18.70;;;;;;;2.58;61.66;98806.56;4485137;32;34355;-76
2022/01/09 14:53:26;;;;;;;35.55;18.08;;;;;;;2.68;61.24;98800.31;4469274;32;34683;-76
2022/01/09 14:56:13;;;;;;;33.95;17.90;;;;;;;3.04;59.44;98808.19;4488716;31;33911;-76
2022/01/09 14:59:04;;;;;;;33.53;17.40;;;;;;;3.14;58.78;98808.12;4476037;32;34265;-76
2022/01/09 15:01:53;;;;;;;33.20;17.55;;;;;;;2.96;59.63;98817.72;4478268;32;34207;-76
2022/01/09 15:04:40;;;;;;;36.58;17.98;;;;;;;3.02;59.72;98813.09;4487747;31;34661;-76
2022/01/09 15:07:27;;;;;;;41.17;19.52;;;;;;;3.09;59.72;98818.97;4488161;32;34813;-76
2022/01/09 15:10:14;;;;;;;37.75;20.40;;;;;;;3.27;58.58;98822.91;4484192;32;35084;-76
2022/01/09 15:13:00;;;;;;;41.03;20.50;;;;;;;3.46;58.26;98814.91;4474859;32;34167;-78
2022/01/09 15:15:47;;;;;;;43.03;19.98;;;;;;;3.33;57.88;98817.19;4479095;32;35011;-77
2022/01/09 15:18:34;;;;;;;45.35;23.90;;;;;;;3.08;59.07;98818.16;4453347;32;35430;-78
2022/01/09 15:21:21;;;;;;;62.92;29.75;;;;;;;3.24;58.88;98824.25;4484666;31;35456;-76
2022/01/09 15:24:08;;;;;;;43.95;21.62;;;;;;;3.10;58.87;98832.25;4469705;32;34426;-76
2022/01/09 15:26:58;;;;;;;40.70;20.05;;;;;;;3.21;58.89;98829.44;4468208;32;34234;-79
2022/01/09 15:29:46;;;;;;;45.33;23.23;;;;;;;3.13;58.67;98831.69;4458643;32;34977;-77
2022/01/09 15:32:33;;;;;;;50.35;23.62;;;;;;;3.06;58.40;98835.78;4470981;32;35201;-78
2022/01/09 15:35:20;;;;;;;48.97;24.08;;;;;;;2.47;60.78;98848.25;4464510;32;35078;-77
2022/01/09 15:38:06;;;;;;;54.97;25.80;;;;;;;3.13;58.96;98850.63;4471751;32;34142;-77
2022/01/09 15:40:53;;;;;;;48.63;25.25;;;;;;;3.05;58.75;98851.22;4464228;32;34520;-77
2022/01/09 15:43:40;;;;;;;53.35;26.90;;;;;;;3.13;58.93;98849.78;4466599;32;35523;-77
2022/01/09 15:46:31;;;;;;;54.38;27.10;;;;;;;3.38;58.83;98856.94;4463448;32;35162;-77
2022/01/09 15:49:18;;;;;;;65.05;29.77;;;;;;;3.25;59.25;98861.09;4472078;32;34231;-77
2022/01/09 15:52:06;;;;;;;76.12;35.40;;;;;;;3.47;57.85;98854.41;4470396;32;36083;-77
2022/01/09 15:54:55;;;;;;;101.35;47.38;;;;;;;3.39;57.96;98863.97;4471372;32;34524;-77
2022/01/09 15:57:42;;;;;;;108.75;52.90;;;;;;;3.42;57.59;98873.44;4465299;32;34197;-77
2022/01/09 16:00:39;;;;;;;86.07;43.85;;;;;;;3.30;57.73;98873.78;4464997;32;34212;-77
2022/01/09 16:03:44;;;;;;;76.12;39.83;;;;;;;3.20;58.18;98882.78;4450707;32;34549;-78
2022/01/09 16:06:33;;;;;;;75.28;38.08;;;;;;;2.99;59.00;98884.81;4462451;32;32454;-78
2022/01/09 16:09:22;;;;;;;70.60;36.78;;;;;;;2.80;59.71;98879.22;4466368;32;34166;-78
2022/01/09 16:12:10;;;;;;;66.75;35.70;;;;;;;2.84;60.43;98879.47;4474514;32;34207;-78
2022/01/09 16:14:59;;;;;;;65.32;33.88;;;;;;;3.01;59.77;98890.75;4455465;32;35190;-78
2022/01/09 16:17:45;;;;;;;56.55;29.90;;;;;;;3.09;58.79;98892.06;4471069;32;35463;-78
2022/01/09 16:20:32;;;;;;;57.38;30.05;;;;;;;3.02;59.08;98891.56;4467236;32;34247;-78
2022/01/09 16:23:18;;;;;;;54.17;28.52;;;;;;;2.96;59.50;98898.06;4471325;32;35460;-76
2022/01/09 16:26:05;;;;;;;47.10;26.35;;;;;;;3.05;59.65;98897.22;4467256;32;34998;-77
2022/01/09 16:28:51;;;;;;;41.08;23.17;;;;;;;2.93;60.16;98894.03;4455522;32;35263;-77
2022/01/09 16:31:38;;;;;;;44.10;23.55;;;;;;;3.06;60.04;98915.06;4466400;32;34743;-77
2022/01/09 16:34:27;;;;;;;40.03;21.50;;;;;;;3.08;58.62;98907.50;4472302;32;35509;-77
2022/01/09 16:37:16;;;;;;;38.83;21.00;;;;;;;3.28;58.05;98911.16;4466907;32;35632;-76
2022/01/09 16:40:03;;;;;;;35.30;19.35;;;;;;;3.24;57.92;98910.09;4465640;32;34530;-78
2022/01/09 16:42:54;;;;;;;38.42;21.00;;;;;;;3.04;58.24;98892.88;4467959;31;34167;-78
2022/01/09 16:45:40;;;;;;;41.30;21.10;;;;;;;2.96;58.23;98903.50;4474944;32;34496;-78
2022/01/09 16:48:29;;;;;;;39.08;20.17;;;;;;;3.00;58.36;98904.56;4470817;32;35040;-78
2022/01/09 16:51:15;;;;;;;46.33;23.23;;;;;;;2.79;58.56;98903.84;4466342;32;34427;-78
2022/01/09 16:54:02;;;;;;;47.00;24.08;;;;;;;2.69;58.26;98910.91;4475720;32;34378;-78
2022/01/09 16:56:48;;;;;;;44.00;23.02;;;;;;;2.75;58.49;98905.50;4466870;32;34531;-77
2022/01/09 16:59:37;;;;;;;44.20;21.77;;;;;;;2.83;57.97;98905.72;4475321;32;33340;-77
2022/01/09 17:02:24;;;;;;;47.72;22.50;;;;;;;2.77;58.22;98911.44;4471475;32;34567;-77
2022/01/09 17:05:10;;;;;;;40.45;20.40;;;;;;;2.62;58.61;98913.13;4477270;32;34201;-78
2022/01/09 17:07:59;;;;;;;43.45;19.87;;;;;;;2.84;57.69;98912.75;4478631;32;34525;-78
2022/01/09 17:10:46;;;;;;;35.40;19.20;;;;;;;2.38;59.03;98922.94;4471263;32;35135;-79
2022/01/09 17:13:32;;;;;;;35.85;18.92;;;;;;;2.48;58.95;98929.13;4467840;32;33109;-78
2022/01/09 17:16:18;;;;;;;42.67;19.05;;;;;;;2.32;59.84;98926.72;4468492;32;34115;-78
2022/01/09 17:19:05;;;;;;;34.92;18.65;;;;;;;2.53;58.87;98928.28;4468227;32;35565;-79
2022/01/09 17:21:51;;;;;;;38.22;18.98;;;;;;;2.64;58.90;98931.75;4479434;32;35357;-79
2022/01/09 17:24:37;;;;;;;38.42;19.25;;;;;;;2.31;59.98;98935.94;4471562;32;34727;-79
2022/01/09 17:27:25;;;;;;;39.13;19.23;;;;;;;2.45;59.32;98943.19;4480920;32;34580;-79
2022/01/09 17:30:12;;;;;;;36.80;18.87;;;;;;;2.75;58.14;98930.66;4476638;32;34383;-75
2022/01/09 17:32:59;;;;;;;39.17;20.77;;;;;;;2.41;59.21;98941.31;4471806;32;34992;-75
2022/01/09 17:35:45;;;;;;;46.22;20.88;;;;;;;2.61;57.96;98943.94;4458024;32;35301;-75
2022/01/09 17:38:32;;;;;;;33.75;18.70;;;;;;;2.52;58.39;98947.50;4469252;32;35111;-75
2022/01/09 17:41:21;;;;;;;42.05;20.37;;;;;;;2.53;58.39;98949.09;4479629;32;34650;-76
2022/01/09 17:44:10;;;;;;;42.58;20.85;;;;;;;2.45;59.00;98948.59;4468018;32;34532;-75
2022/01/09 17:47:15;;;;;;;43.85;21.58;;;;;;;2.01;60.47;98949.19;4473887;32;35376;-75
2022/01/09 17:50:02;;;;;;;41.78;22.50;;;;;;;2.01;61.67;98959.22;4468024;32;35174;-75
2022/01/09 17:52:49;;;;;;;44.15;21.00;;;;;;;2.05;62.11;98965.69;4457331;32;35539;-76
2022/01/09 17:55:35;;;;;;;43.15;20.33;;;;;;;1.80;63.56;98964.63;4467564;32;35936;-75
2022/01/09 17:58:22;;;;;;;51.53;23.05;;;;;;;1.66;65.12;98970.81;4467300;32;35404;-75
2022/01/09 18:01:08;;;;;;;47.30;23.58;;;;;;;1.89;64.67;98972.19;4477205;32;35142;-76
2022/01/09 18:03:55;;;;;;;49.92;22.65;;;;;;;1.95;64.56;98971.09;4478137;32;35477;-75
2022/01/09 18:06:42;;;;;;;47.60;23.23;;;;;;;1.97;64.86;98974.34;4470884;32;35033;-75
2022/01/09 18:09:31;;;;;;;48.22;22.25;;;;;;;1.96;65.15;98980.81;4469493;32;35348;-75
2022/01/09 18:12:18;;;;;;;45.70;22.02;;;;;;;1.90;65.40;98984.59;4473679;32;33684;-75
2022/01/09 18:15:05;;;;;;;45.08;23.92;;;;;;;2.16;65.01;98988.94;4470568;32;34651;-77
2022/01/09 18:17:51;;;;;;;57.92;25.70;;;;;;;1.93;65.61;98995.66;4476239;32;35005;-76
2022/01/09 18:20:43;;;;;;;;;;;;;;;2.09;65.29;98999.19;4475235;32;34522;-76
2022/01/09 18:23:30;;;;;;;52.70;24.60;;;;;;;1.81;66.51;98989.72;4473588;32;34811;-77
2022/01/09 18:26:16;;;;;;;49.75;24.08;;;;;;;1.98;66.41;99002.97;4475365;32;35516;-76
2022/01/09 18:29:02;;;;;;;49.78;24.40;;;;;;;2.10;65.96;99008.09;4469948;32;36058;-77
2022/01/09 18:31:50;;;;;;;50.10;24.30;;;;;;;2.14;65.92;99010.00;4475624;32;34607;-76
2022/01/09 18:34:36;;;;;;;56.13;26.30;;;;;;;1.55;68.60;99005.91;4474359;32;34236;-76
2022/01/09 18:37:22;;;;;;;51.42;25.10;;;;;;;1.78;68.12;99001.87;4466162;32;34554;-76
2022/01/09 18:40:10;;;;;;;46.65;21.92;;;;;;;1.74;68.61;99019.72;4470336;32;35088;-77
2022/01/09 18:42:56;;;;;;;48.03;24.05;;;;;;;1.62;69.16;99013.72;4467608;32;34090;-76
2022/01/09 18:45:43;;;;;;;44.75;22.45;;;;;;;1.64;69.22;99011.59;4474224;32;35094;-76
2022/01/09 18:48:32;;;;;;;51.90;24.37;;;;;;;1.42;69.81;99008.28;4456009;32;35442;-76
2022/01/09 18:51:22;;;;;;;46.45;21.92;;;;;;;1.26;71.06;99010.16;4475869;32;35744;-76
2022/01/09 18:54:09;;;;;;;41.05;21.15;;;;;;;1.34;70.78;99017.75;4473819;32;34740;-76
2022/01/09 18:57:02;;;;;;;42.38;21.77;;;;;;;1.48;70.29;99024.25;4469708;32;34128;-77
2022/01/09 18:59:49;;;;;;;40.33;20.77;;;;;;;1.56;69.66;99029.12;4469468;32;34219;-76
2022/01/09 19:02:35;;;;;;;41.72;20.80;;;;;;;1.62;70.20;99032.63;4475259;32;34952;-75
2022/01/09 19:05:24;;;;;;;39.00;20.10;;;;;;;1.88;69.28;99036.22;4469228;32;33363;-75
2022/01/09 19:08:14;;;;;;;41.88;20.62;;;;;;;1.62;69.73;99038.03;4471052;32;35079;-77
2022/01/09 19:11:01;;;;;;;40.80;21.23;;;;;;;1.64;69.32;99037.78;4468872;32;35554;-76
2022/01/09 19:13:48;;;;;;;40.30;21.20;;;;;;;1.53;70.03;99040.44;4473993;32;34635;-76
2022/01/09 19:16:37;;;;;;;39.33;20.58;;;;;;;1.61;69.86;99031.03;4468187;32;33873;-76
2022/01/09 19:19:23;;;;;;;35.55;18.80;;;;;;;1.29;70.61;99040.13;4475869;32;34264;-76
2022/01/09 19:22:12;;;;;;;38.08;18.67;;;;;;;1.43;69.87;99024.25;4466655;32;35457;-77
2022/01/09 19:24:59;;;;;;;33.47;17.15;;;;;;;1.39;69.77;99030.44;4467162;32;36903;-77
2022/01/09 19:27:46;;;;;;;34.97;18.25;;;;;;;1.04;72.16;99034.63;4467749;32;34138;-77
2022/01/09 19:30:32;;;;;;;38.15;18.27;;;;;;;1.27;71.23;99036.06;4477428;32;34114;-76
2022/01/09 19:33:19;;;;;;;37.53;19.45;;;;;;;1.61;69.75;99039.13;4476219;32;34607;-76
2022/01/09 19:36:06;;;;;;;37.15;18.12;;;;;;;1.67;69.46;99038.06;4467895;32;35623;-76
2022/01/09 19:38:52;;;;;;;38.83;18.48;;;;;;;1.36;70.49;99037.16;4476533;32;35070;-77
2022/01/09 19:41:40;;;;;;;31.90;17.67;;;;;;;1.13;71.46;99039.25;4472663;32;34275;-77
2022/01/09 19:44:26;;;;;;;39.40;17.87;;;;;;;1.05;72.07;99031.66;4469101;32;33267;-77
2022/01/09 19:47:13;;;;;;;39.97;18.70;;;;;;;1.13;72.18;99031.13;4467056;32;35016;-77
2022/01/09 19:50:00;;;;;;;36.13;18.00;;;;;;;1.09;72.85;99037.34;4466622;32;34716;-77
2022/01/09 19:52:46;;;;;;;35.22;17.48;;;;;;;0.85;73.46;99040.47;4468885;32;35017;-77
2022/01/09 19:55:33;;;;;;;33.55;16.73;;;;;;;0.96;73.62;99045.91;4463893;32;33982;-76
2022/01/09 19:58:21;;;;;;;34.05;17.58;;;;;;;0.90;73.87;99045.88;4467348;32;35902;-77
2022/01/09 20:01:08;;;;;;;33.80;15.88;;;;;;;0.78;74.03;99044.47;4473865;32;34207;-77
2022/01/09 20:03:55;;;;;;;32.50;16.15;;;;;;;0.88;73.71;99041.81;4467635;32;34128;-77
2022/01/09 20:06:42;;;;;;;32.70;14.77;;;;;;;0.92;73.34;99045.63;4477091;32;35540;-77
2022/01/09 20:09:29;;;;;;;30.98;16.12;;;;;;;1.13;72.77;99050.03;4474704;32;35053;-76
2022/01/09 20:12:15;;;;;;;29.17;15.48;;;;;;;1.09;72.83;99050.84;4474833;32;34499;-77
2022/01/09 20:15:03;;;;;;;32.05;16.27;;;;;;;1.00;73.11;99052.41;4467872;32;35128;-77
2022/01/09 20:17:50;;;;;;;28.23;14.82;;;;;;;1.25;72.06;99054.41;4466332;32;33492;-77
2022/01/09 20:20:36;;;;;;;26.75;14.13;;;;;;;1.45;70.62;99062.59;4474636;32;35908;-77
2022/01/09 20:23:26;;;;;;;30.98;14.60;;;;;;;1.07;72.43;99063.78;4472406;32;34496;-78
2022/01/09 20:26:14;;;;;;;28.92;14.48;;;;;;;1.41;70.59;99068.78;4463864;32;34220;-77
2022/01/09 20:29:02;;;;;;;29.08;14.70;;;;;;;1.45;70.40;99075.25;4454296;32;34408;-77
2022/01/09 20:31:50;;;;;;;29.92;15.27;;;;;;;1.76;69.10;99060.75;4475068;32;34846;-77
2022/01/09 20:34:37;;;;;;;30.52;15.85;;;;;;;1.77;68.85;99069.69;4457582;32;34718;-78
2022/01/09 20:37:24;;;;;;;29.10;15.40;;;;;;;1.17;71.10;99069.22;4470034;32;34147;-78
2022/01/09 20:40:14;;;;;;;29.05;15.25;;;;;;;1.06;71.70;99071.06;4450192;32;34683;-78
2022/01/09 20:43:02;;;;;;;27.37;14.68;;;;;;;1.18;71.46;99064.63;4473852;32;34994;-78
2022/01/09 20:45:51;;;;;;;28.33;14.85;;;;;;;1.63;69.83;99066.69;4475398;31;33574;-77
2022/01/09 20:48:40;;;;;;;28.27;14.38;;;;;;;1.69;69.03;99067.50;4446658;32;34582;-78
2022/01/09 20:51:26;;;;;;;31.27;14.65;;;;;;;1.35;70.56;99060.66;4460959;32;35575;-77
2022/01/09 20:54:12;;;;;;;32.88;15.25;;;;;;;1.83;68.21;99065.13;4470519;32;35685;-78
2022/01/09 20:56:59;;;;;;;31.58;16.27;;;;;;;1.20;70.41;99068.69;4470258;32;34310;-77
2022/01/09 20:59:46;;;;;;;29.27;14.95;;;;;;;1.08;71.22;99071.63;4468210;32;34137;-78
2022/01/09 21:02:34;;;;;;;30.92;15.18;;;;;;;1.48;69.94;99059.34;4472501;32;35469;-77
2022/01/09 21:05:21;;;;;;;29.10;14.38;;;;;;;1.92;68.34;99063.50;4476837;32;34918;-80
2022/01/09 21:08:11;;;;;;;29.60;14.27;;;;;;;2.03;67.22;99057.03;4475249;32;35463;-78
2022/01/09 21:11:01;;;;;;;29.33;15.00;;;;;;;1.71;68.15;99051.84;4468039;32;34803;-79
2022/01/09 21:13:48;;;;;;;31.67;15.68;;;;;;;1.89;67.81;99047.81;4476438;32;34279;-77
2022/01/09 21:16:34;;;;;;;28.23;13.25;;;;;;;1.90;67.90;99038.63;4473049;32;33905;-76
2022/01/09 21:19:20;;;;;;;31.17;13.77;;;;;;;1.77;67.87;99043.50;4476082;32;35151;-76
2022/01/09 21:22:07;;;;;;;29.45;14.05;;;;;;;1.23;69.82;99049.28;4465856;32;34165;-75
2022/01/09 21:24:54;;;;;;;29.60;14.45;;;;;;;1.52;69.56;99051.53;4474541;32;34650;-75
2022/01/09 21:27:40;;;;;;;28.40;14.55;;;;;;;1.58;69.31;99045.88;4469055;32;34749;-76
2022/01/09 21:30:28;;;;;;;27.05;13.55;;;;;;;1.62;69.33;99048.84;4466308;32;34561;-76
2022/01/09 21:33:15;;;;;;;29.52;14.13;;;;;;;1.68;69.04;99058.59;4472436;32;34090;-76
2022/01/09 21:36:01;;;;;;;28.65;13.73;;;;;;;1.90;67.97;99061.06;4455268;32;34373;-77
2022/01/09 21:38:49;;;;;;;32.38;14.60;;;;;;;1.81;67.81;99059.97;4476857;32;36398;-77
2022/01/09 21:41:35;;;;;;;30.10;13.85;;;;;;;1.71;68.02;99063.47;4474530;32;35341;-78
